aviador You're here:

LEPA Decoded Metar

PALMA DE MALLORCA in SPAIN
Report Time2018-02-22 06:00:00
UTC Time2018-02-22 06:26:47
Flight Rules vfr VFR
WindCalm
Visibility9999 m
Phenomena:N/A
Clouds:Few 025 Hf
Expected CloudBase > 1,200 ft AGL from Temp-Dew spread
CeilingNone
Temp04°C (ISA -11)
Dew Point01°C (81% RH)
AAT2.2°C
QNH1006 hPa
Density Alt-971 ft
Elevation26 ft
Report Wrong Elevation
Raw Report
LEPA 220600Z 00000KT 9999 FEW025 04/01 Q1006 NOSIG=

Extra information for LEPA:More info

Metar Taf Metar & Taf Last 4 Metars F.Rules Stats Wind Profile Meteogram Temp Stats Airport Information Weather charts Add Link Nearby VenuesMetar ALERT Operation Metar Decoded Social comments

Webcam La Seu Palma